Time;durP1;ratioP1;P1;durP2;ratioP2;P2;SDS_P1;SDS_P2;PMS_P1;PMS_P2;Temp;Humidity;BMP_temperature;BMP_pressure;BME280_temperature;BME280_humidity;BME280_pressure;Samples;Min_cycle;Max_cycle;Signal;HPM_P1;HPM_P2
2022/01/10 00:00:24;;;;;;;0.80;0.80;;;1.30;99.90;;;;;;5047987;28;20047;-91
2022/01/10 00:02:52;;;;;;;0.70;0.70;;;1.30;99.90;;;;;;5062042;28;20068;-90
2022/01/10 00:05:18;;;;;;;0.80;0.80;;;1.30;99.90;;;;;;5061820;28;20036;-90
2022/01/10 00:07:44;;;;;;;0.70;0.70;;;1.30;99.90;;;;;;5057608;28;20076;-90
2022/01/10 00:10:10;;;;;;;0.70;0.70;;;1.30;99.90;;;;;;5061598;28;20044;-91
2022/01/10 00:12:36;;;;;;;0.80;0.80;;;1.30;99.90;;;;;;5055154;28;20474;-90
2022/01/10 00:15:03;;;;;;;0.80;0.80;;;1.30;99.90;;;;;;5064687;28;20044;-90
2022/01/10 00:17:29;;;;;;;0.70;0.70;;;1.20;99.90;;;;;;5062087;28;20060;-91
2022/01/10 00:19:54;;;;;;;0.80;0.80;;;1.20;99.90;;;;;;5065497;28;20400;-91
2022/01/10 00:22:22;;;;;;;1.00;1.00;;;1.20;99.90;;;;;;5063006;28;20044;-91
2022/01/10 00:24:48;;;;;;;0.70;0.70;;;1.20;99.90;;;;;;5048956;28;20055;-90
2022/01/10 00:27:14;;;;;;;0.80;0.80;;;1.20;99.90;;;;;;5060554;28;20410;-89
2022/01/10 00:29:39;;;;;;;0.90;0.90;;;1.20;99.90;;;;;;5067207;28;20554;-90
2022/01/10 00:32:05;;;;;;;0.80;0.80;;;1.20;99.90;;;;;;5060678;28;20132;-90
2022/01/10 00:34:30;;;;;;;0.80;0.80;;;1.10;99.90;;;;;;5062530;28;20556;-90
2022/01/10 00:36:56;;;;;;;0.80;0.80;;;1.10;99.90;;;;;;5064484;28;20094;-91
2022/01/10 00:39:22;;;;;;;0.70;0.70;;;1.20;99.90;;;;;;5066661;28;20048;-91
2022/01/10 00:41:48;;;;;;;0.73;0.73;;;1.10;99.90;;;;;;5051224;28;20044;-91
2022/01/10 00:44:14;;;;;;;1.00;1.00;;;1.00;99.90;;;;;;5063104;28;20075;-89
2022/01/10 00:46:40;;;;;;;0.80;0.80;;;1.00;99.90;;;;;;5061679;28;20053;-90
2022/01/10 00:49:06;;;;;;;0.80;0.80;;;1.00;99.90;;;;;;5059171;28;20044;-91
2022/01/10 00:51:31;;;;;;;0.77;0.77;;;1.00;99.90;;;;;;5065179;28;20100;-91
2022/01/10 00:53:57;;;;;;;0.73;0.73;;;1.00;99.90;;;;;;5065295;28;20071;-90
2022/01/10 00:56:25;;;;;;;1.30;1.20;;;1.00;99.90;;;;;;5055100;28;20432;-90
2022/01/10 00:58:51;;;;;;;0.90;0.90;;;0.90;99.90;;;;;;5067660;28;20071;-90
2022/01/10 01:01:17;;;;;;;0.77;0.77;;;1.00;99.90;;;;;;5066501;28;20044;-91
2022/01/10 01:03:44;;;;;;;0.70;0.70;;;0.90;99.90;;;;;;5051831;28;20052;-91
2022/01/10 01:06:11;;;;;;;0.80;0.80;;;0.90;99.90;;;;;;5055891;28;20064;-91
2022/01/10 01:08:37;;;;;;;0.80;0.80;;;0.90;99.90;;;;;;5061295;28;20043;-90
2022/01/10 01:16:17;;;;;;;1.38;1.27;;;0.80;99.90;;;;;;5083408;28;20048;-91
2022/01/10 01:24:04;;;;;;;0.80;0.80;;;0.90;99.90;;;;;;5080038;28;20049;-91
2022/01/10 01:26:38;;;;;;;0.77;0.77;;;0.70;99.90;;;;;;5066196;28;20045;-91
2022/01/10 01:29:05;;;;;;;0.70;0.70;;;0.70;99.90;;;;;;5074188;28;20067;-91
2022/01/10 01:31:31;;;;;;;0.80;0.80;;;0.70;99.90;;;;;;5057403;28;20064;-90
2022/01/10 01:33:56;;;;;;;0.80;0.80;;;0.70;99.90;;;;;;5061605;28;20044;-91
2022/01/10 01:36:26;;;;;;;0.80;0.80;;;0.60;99.90;;;;;;5066332;28;20040;-89
2022/01/10 01:38:53;;;;;;;0.70;0.70;;;0.50;99.90;;;;;;5055896;28;20048;-91
2022/01/10 01:43:55;;;;;;;0.80;0.80;;;0.50;99.90;;;;;;5071134;28;20040;-90
2022/01/10 01:46:21;;;;;;;0.80;0.80;;;0.50;99.90;;;;;;5063987;28;20060;-90
2022/01/10 01:48:49;;;;;;;0.80;0.80;;;0.50;99.90;;;;;;5055839;28;20036;-90
2022/01/10 01:51:15;;;;;;;0.80;0.80;;;0.50;99.90;;;;;;5061479;28;20037;-91
2022/01/10 01:53:41;;;;;;;0.80;0.80;;;0.50;99.90;;;;;;5065653;28;20051;-91
2022/01/10 01:56:09;;;;;;;0.80;0.80;;;0.50;99.90;;;;;;5051536;28;20048;-91
2022/01/10 01:58:37;;;;;;;0.70;0.70;;;0.50;99.90;;;;;;5056537;28;20062;-91
2022/01/10 02:01:05;;;;;;;0.70;0.70;;;0.40;99.90;;;;;;5064914;28;20036;-91
2022/01/10 02:03:33;;;;;;;1.08;1.05;;;0.40;99.90;;;;;;5060134;28;20056;-91
2022/01/10 02:06:00;;;;;;;0.80;0.80;;;0.40;99.90;;;;;;5045178;28;20053;-91
2022/01/10 02:08:26;;;;;;;0.80;0.80;;;0.40;99.90;;;;;;5064325;28;20032;-90
2022/01/10 02:10:51;;;;;;;0.80;0.80;;;0.30;99.90;;;;;;5061491;28;20080;-91
2022/01/10 02:13:17;;;;;;;0.70;0.70;;;0.30;99.90;;;;;;5060717;28;20389;-91
2022/01/10 02:15:48;;;;;;;0.80;0.80;;;0.40;99.90;;;;;;5058765;28;20122;-91
2022/01/10 02:18:15;;;;;;;0.80;0.80;;;0.00;99.90;;;;;;5055850;28;20040;-91
2022/01/10 02:20:41;;;;;;;0.80;0.80;;;0.20;99.90;;;;;;5058657;28;20060;-91
2022/01/10 02:23:07;;;;;;;1.70;1.60;;;0.20;99.90;;;;;;5060249;28;20041;-91
2022/01/10 02:25:33;;;;;;;0.90;0.90;;;0.20;99.90;;;;;;5065009;28;20040;-90
2022/01/10 02:28:00;;;;;;;0.80;0.80;;;0.30;99.90;;;;;;5065295;28;20068;-90
2022/01/10 02:30:26;;;;;;;0.82;0.82;;;0.20;99.90;;;;;;5062883;28;20051;-91
2022/01/10 02:32:52;;;;;;;0.80;0.80;;;0.30;99.90;;;;;;5056484;28;20082;-91
2022/01/10 02:35:24;;;;;;;0.80;0.80;;;0.20;99.90;;;;;;5053940;28;20064;-91
2022/01/10 02:37:51;;;;;;;0.82;0.82;;;0.10;99.90;;;;;;5064741;28;20059;-91
2022/01/10 02:40:19;;;;;;;0.90;0.90;;;0.10;99.90;;;;;;5060237;28;20044;-91
2022/01/10 02:42:45;;;;;;;0.90;0.90;;;0.00;99.90;;;;;;5056428;28;20045;-91
2022/01/10 02:45:11;;;;;;;0.80;0.80;;;0.10;99.90;;;;;;5049674;28;20064;-91
2022/01/10 02:47:37;;;;;;;0.82;0.82;;;0.00;99.90;;;;;;5049188;28;20129;-90
2022/01/10 02:50:04;;;;;;;1.27;1.17;;;0.00;99.90;;;;;;5061092;28;20517;-91
2022/01/10 02:52:30;;;;;;;0.80;0.80;;;0.00;99.90;;;;;;5051289;28;20040;-91
2022/01/10 02:55:00;;;;;;;0.70;0.70;;;0.00;99.90;;;;;;5059001;28;20091;-91
2022/01/10 02:57:26;;;;;;;0.90;0.90;;;0.00;99.90;;;;;;5056731;28;20037;-90
2022/01/10 02:59:51;;;;;;;0.80;0.80;;;0.00;99.90;;;;;;5064728;28;20045;-90
2022/01/10 03:02:20;;;;;;;0.90;0.90;;;-0.10;99.90;;;;;;5064705;28;20123;-91
2022/01/10 03:04:46;;;;;;;0.80;0.80;;;-0.10;99.90;;;;;;5062706;28;20071;-90
2022/01/10 03:07:16;;;;;;;4.20;1.33;;;-0.10;99.90;;;;;;5064528;28;20096;-91
2022/01/10 03:09:41;;;;;;;0.80;0.80;;;-0.20;99.90;;;;;;5061727;28;20448;-91
2022/01/10 03:12:09;;;;;;;0.90;0.90;;;-0.20;99.90;;;;;;5057768;28;20045;-91
2022/01/10 03:14:35;;;;;;;0.80;0.80;;;-0.20;99.90;;;;;;5054224;28;20139;-91
2022/01/10 03:17:01;;;;;;;0.70;0.70;;;-0.30;99.90;;;;;;5064658;28;20044;-90
2022/01/10 03:19:26;;;;;;;0.80;0.80;;;-0.30;99.90;;;;;;5056695;28;20037;-91
2022/01/10 03:21:52;;;;;;;0.90;0.90;;;-0.30;99.90;;;;;;5059915;28;20104;-91
2022/01/10 03:24:17;;;;;;;0.98;0.98;;;-0.30;99.90;;;;;;5074733;28;20033;-90
2022/01/10 03:26:43;;;;;;;0.90;0.90;;;-0.30;99.90;;;;;;5055307;28;20485;-91
2022/01/10 03:29:08;;;;;;;1.00;1.00;;;-0.40;99.90;;;;;;5049876;28;20115;-92
2022/01/10 03:31:34;;;;;;;0.90;0.90;;;-0.40;99.90;;;;;;5064064;28;20047;-91
2022/01/10 03:33:59;;;;;;;0.80;0.80;;;-0.40;99.90;;;;;;5059011;28;20045;-90
2022/01/10 03:36:25;;;;;;;1.00;1.00;;;-0.40;99.90;;;;;;5050793;28;20051;-91
2022/01/10 03:38:51;;;;;;;0.90;0.90;;;-0.40;99.90;;;;;;5048331;28;20044;-91
2022/01/10 03:41:16;;;;;;;0.90;0.90;;;-0.40;99.90;;;;;;5064053;28;20055;-90
2022/01/10 03:43:42;;;;;;;0.80;0.80;;;-0.50;99.90;;;;;;5060542;28;20032;-92
2022/01/10 03:46:07;;;;;;;0.90;0.90;;;-0.50;99.90;;;;;;5060605;28;20075;-91
2022/01/10 03:48:33;;;;;;;0.90;0.90;;;-0.50;99.90;;;;;;5063788;28;20453;-91
2022/01/10 03:50:58;;;;;;;0.80;0.80;;;-0.50;99.90;;;;;;5067430;28;20041;-91
2022/01/10 03:53:24;;;;;;;0.90;0.90;;;-0.50;99.90;;;;;;5068416;28;20040;-91
2022/01/10 03:55:50;;;;;;;1.00;0.95;;;-0.50;99.90;;;;;;5066626;28;20100;-91
2022/01/10 03:58:15;;;;;;;0.90;0.90;;;-0.50;99.90;;;;;;5055406;28;20036;-91
2022/01/10 04:00:41;;;;;;;0.90;0.90;;;-0.50;99.90;;;;;;5063658;28;20037;-91
2022/01/10 04:03:07;;;;;;;1.02;1.02;;;-0.50;99.90;;;;;;5065601;28;20142;-92
2022/01/10 04:05:34;;;;;;;0.80;0.80;;;-0.50;99.90;;;;;;5060129;28;20043;-91
2022/01/10 04:08:00;;;;;;;0.93;0.93;;;-0.50;99.90;;;;;;5057610;28;20096;-91
2022/01/10 04:10:26;;;;;;;0.90;0.90;;;-0.50;99.90;;;;;;5050876;28;20057;-90
2022/01/10 04:12:51;;;;;;;0.90;0.90;;;-0.30;99.90;;;;;;5064939;28;20051;-91
2022/01/10 04:15:17;;;;;;;0.98;0.98;;;-0.50;99.90;;;;;;5056654;28;20052;-91
2022/01/10 04:17:43;;;;;;;0.80;0.80;;;-0.50;99.90;;;;;;5051897;28;20036;-91
2022/01/10 04:20:09;;;;;;;0.77;0.77;;;-0.50;99.90;;;;;;5063656;28;20090;-92
2022/01/10 04:22:35;;;;;;;0.85;0.85;;;-0.50;99.90;;;;;;5055534;28;20033;-91
2022/01/10 04:25:01;;;;;;;0.90;0.90;;;-0.50;99.90;;;;;;5059290;28;20048;-92
2022/01/10 04:27:31;;;;;;;0.82;0.82;;;-0.50;99.90;;;;;;5070087;28;20051;-92
2022/01/10 04:29:58;;;;;;;0.80;0.80;;;-0.50;99.90;;;;;;5067540;28;20037;-92
2022/01/10 04:32:28;;;;;;;1.38;1.27;;;-0.50;99.90;;;;;;5060170;28;20417;-91
2022/01/10 04:34:54;;;;;;;0.90;0.90;;;-0.50;99.90;;;;;;5061207;28;20037;-93
2022/01/10 04:37:20;;;;;;;0.80;0.80;;;-0.50;99.90;;;;;;5053957;28;20117;-92
2022/01/10 04:39:45;;;;;;;0.70;0.70;;;-0.50;99.90;;;;;;5063455;28;20052;-91
2022/01/10 04:42:12;;;;;;;0.85;0.85;;;-0.60;99.90;;;;;;5054961;28;20041;-90
2022/01/10 04:44:38;;;;;;;0.90;0.90;;;-0.60;99.90;;;;;;5048776;28;20043;-91
2022/01/10 04:47:04;;;;;;;0.80;0.80;;;-0.60;99.90;;;;;;5057105;28;20049;-92
2022/01/10 04:49:38;;;;;;;0.80;0.80;;;-0.60;99.90;;;;;;5065054;28;20051;-90
2022/01/10 04:52:04;;;;;;;0.85;0.85;;;-0.60;99.90;;;;;;5048022;28;20056;-91
2022/01/10 04:54:29;;;;;;;0.80;0.80;;;-0.10;99.90;;;;;;5055258;28;20094;-92
2022/01/10 04:56:55;;;;;;;0.90;0.90;;;-0.60;99.90;;;;;;5048974;28;20033;-91
2022/01/10 04:59:20;;;;;;;0.80;0.80;;;-0.60;99.90;;;;;;5073318;28;20052;-92
2022/01/10 05:01:46;;;;;;;0.70;0.70;;;-0.60;99.90;;;;;;5052023;28;20088;-91
2022/01/10 05:04:14;;;;;;;1.00;1.00;;;-0.70;99.90;;;;;;5053101;28;20045;-91
2022/01/10 05:06:39;;;;;;;1.15;1.05;;;-0.70;99.90;;;;;;5054163;28;20080;-91
2022/01/10 05:09:05;;;;;;;0.80;0.80;;;-0.70;99.90;;;;;;5051960;28;20151;-91
2022/01/10 05:11:32;;;;;;;0.88;0.88;;;-0.50;99.90;;;;;;5058475;28;20105;-92
2022/01/10 05:13:58;;;;;;;0.80;0.80;;;-0.70;99.90;;;;;;5066314;28;20068;-92
2022/01/10 05:16:24;;;;;;;0.80;0.80;;;;;;;;;;5066939;28;20071;-92
2022/01/10 05:18:50;;;;;;;0.90;0.90;;;-0.70;99.90;;;;;;5048059;28;20167;-91
2022/01/10 05:21:17;;;;;;;0.80;0.80;;;-0.70;99.90;;;;;;5053281;28;20083;-91
2022/01/10 05:23:43;;;;;;;0.80;0.80;;;-0.70;99.90;;;;;;5059111;28;20032;-90
2022/01/10 05:26:08;;;;;;;0.80;0.80;;;-0.50;99.90;;;;;;5049965;28;20083;-92
2022/01/10 05:28:34;;;;;;;1.02;1.02;;;-0.70;99.90;;;;;;5063142;28;20374;-91
2022/01/10 05:31:01;;;;;;;0.90;0.90;;;-0.60;99.90;;;;;;5060864;28;20066;-91
2022/01/10 05:33:27;;;;;;;0.80;0.80;;;-0.80;99.90;;;;;;5046146;28;20099;-91
2022/01/10 05:35:53;;;;;;;0.80;0.80;;;-0.80;99.90;;;;;;5053981;28;20048;-91
2022/01/10 05:38:18;;;;;;;0.90;0.90;;;-0.80;99.90;;;;;;5046462;28;20083;-91
2022/01/10 05:40:44;;;;;;;0.98;0.98;;;-0.80;99.90;;;;;;5074413;28;20052;-90
2022/01/10 05:43:09;;;;;;;2.10;1.55;;;-0.80;99.90;;;;;;5065309;28;20049;-91
2022/01/10 05:45:35;;;;;;;1.33;1.23;;;-0.90;99.90;;;;;;5060356;28;20056;-92
2022/01/10 05:48:08;;;;;;;0.90;0.90;;;-0.90;99.90;;;;;;5047950;28;20045;-91
2022/01/10 05:50:36;;;;;;;0.90;0.90;;;-0.90;99.90;;;;;;5064560;28;20045;-91
2022/01/10 05:53:02;;;;;;;1.30;1.20;;;-0.90;99.90;;;;;;5063732;28;20041;-90
2022/01/10 05:55:28;;;;;;;0.90;0.90;;;-0.90;99.90;;;;;;5056742;28;20048;-90
2022/01/10 05:57:54;;;;;;;1.00;1.00;;;-0.90;99.90;;;;;;5056846;28;20068;-91
2022/01/10 06:00:20;;;;;;;1.00;1.00;;;-0.90;99.90;;;;;;5060195;28;20479;-91
2022/01/10 06:02:45;;;;;;;0.80;0.80;;;-0.90;99.90;;;;;;5065237;28;20128;-91
2022/01/10 06:05:11;;;;;;;0.90;0.90;;;-0.90;99.90;;;;;;5054976;28;20060;-91
2022/01/10 06:07:37;;;;;;;0.90;0.90;;;-1.00;99.90;;;;;;5064642;28;20032;-90
2022/01/10 06:10:04;;;;;;;0.80;0.80;;;-1.00;99.90;;;;;;5065075;28;20092;-91
2022/01/10 06:12:30;;;;;;;0.90;0.90;;;-1.00;99.90;;;;;;5054095;28;20099;-90
2022/01/10 06:14:56;;;;;;;1.92;1.83;;;-1.00;99.90;;;;;;5053485;28;20052;-90
2022/01/10 06:17:21;;;;;;;1.00;1.00;;;-1.00;99.90;;;;;;5056968;28;20108;-90
2022/01/10 06:19:47;;;;;;;1.00;1.00;;;-1.00;99.90;;;;;;5055616;28;20405;-90
2022/01/10 06:22:12;;;;;;;0.98;0.98;;;-1.00;99.90;;;;;;5049503;28;20044;-90
2022/01/10 06:24:39;;;;;;;1.30;1.20;;;-1.00;99.90;;;;;;5064808;28;20127;-90
2022/01/10 06:27:04;;;;;;;0.80;0.80;;;-1.00;99.90;;;;;;5064902;28;20041;-89
2022/01/10 06:29:30;;;;;;;1.27;1.17;;;-1.10;99.90;;;;;;5062638;28;20063;-90
2022/01/10 06:31:55;;;;;;;1.00;1.00;;;-1.10;99.90;;;;;;5054013;28;20049;-90
2022/01/10 06:34:21;;;;;;;0.90;0.90;;;-1.00;99.90;;;;;;5057638;28;20525;-90
2022/01/10 06:36:47;;;;;;;0.80;0.80;;;-1.10;99.90;;;;;;5060801;28;20044;-89
2022/01/10 06:39:12;;;;;;;1.27;1.17;;;-1.10;99.90;;;;;;5063363;28;20040;-89
2022/01/10 06:41:38;;;;;;;1.27;1.17;;;-1.20;99.90;;;;;;5052831;28;20055;-89
2022/01/10 06:44:04;;;;;;;1.10;1.10;;;-1.20;99.90;;;;;;5051697;28;20033;-90
2022/01/10 06:46:29;;;;;;;1.00;1.00;;;-1.20;99.90;;;;;;5047093;28;20041;-89
2022/01/10 06:48:55;;;;;;;1.65;1.55;;;-1.20;99.90;;;;;;5060562;28;20037;-89
2022/01/10 06:51:20;;;;;;;0.98;0.98;;;-1.20;99.90;;;;;;5054277;28;20045;-89
2022/01/10 06:53:46;;;;;;;1.40;1.30;;;-1.20;99.90;;;;;;5076763;28;20067;-89
2022/01/10 06:56:12;;;;;;;0.90;0.90;;;-1.20;99.90;;;;;;5064474;28;20045;-89
2022/01/10 06:58:37;;;;;;;1.00;1.00;;;-1.30;99.90;;;;;;5058692;28;20150;-88
2022/01/10 07:01:04;;;;;;;0.80;0.80;;;-1.30;99.90;;;;;;5076459;28;20048;-89
2022/01/10 07:03:29;;;;;;;0.80;0.80;;;-1.30;99.90;;;;;;5063438;28;20374;-89
2022/01/10 07:05:55;;;;;;;0.90;0.90;;;-1.20;99.90;;;;;;5073801;28;20151;-89
2022/01/10 07:08:22;;;;;;;0.80;0.80;;;-1.30;99.90;;;;;;5058347;28;20036;-90
2022/01/10 07:10:48;;;;;;;0.90;0.90;;;-1.30;99.90;;;;;;5054794;28;20146;-89
2022/01/10 07:13:14;;;;;;;1.10;1.08;;;-1.30;99.90;;;;;;5058421;28;20196;-89
2022/01/10 07:15:40;;;;;;;0.93;0.93;;;-1.40;99.90;;;;;;5055590;28;20147;-89
2022/01/10 07:18:05;;;;;;;1.95;1.67;;;-1.30;99.90;;;;;;5061499;28;20089;-89
2022/01/10 07:20:33;;;;;;;0.95;0.95;;;-1.30;99.90;;;;;;5071591;28;20083;-88
2022/01/10 07:22:59;;;;;;;0.82;0.82;;;-1.40;99.90;;;;;;5062124;28;20120;-89
2022/01/10 07:25:25;;;;;;;0.80;0.80;;;-1.40;99.90;;;;;;5048658;28;20048;-89
2022/01/10 07:27:50;;;;;;;0.90;0.90;;;-1.40;99.90;;;;;;5067832;28;20040;-89
2022/01/10 07:30:16;;;;;;;1.00;1.00;;;-1.40;99.90;;;;;;5067812;28;20040;-89
2022/01/10 07:32:42;;;;;;;1.02;1.02;;;-1.40;99.90;;;;;;5060579;28;20043;-88
2022/01/10 07:35:08;;;;;;;0.90;0.90;;;-1.40;99.90;;;;;;5059855;28;20048;-89
2022/01/10 07:37:33;;;;;;;0.98;0.98;;;-1.40;99.90;;;;;;5052834;28;20424;-88
2022/01/10 07:39:59;;;;;;;1.30;1.20;;;-1.40;99.90;;;;;;5062036;28;20052;-89
2022/01/10 07:42:24;;;;;;;1.08;1.08;;;-1.40;99.90;;;;;;5072844;28;20101;-89
2022/01/10 07:44:50;;;;;;;1.20;1.10;;;-1.40;99.90;;;;;;5056627;28;20059;-89
2022/01/10 07:47:16;;;;;;;0.77;0.77;;;-1.40;99.90;;;;;;5066715;28;20599;-88
2022/01/10 07:49:42;;;;;;;0.90;0.90;;;-1.50;99.90;;;;;;5057113;28;20037;-89
2022/01/10 07:52:07;;;;;;;0.90;0.90;;;-1.50;99.90;;;;;;5065250;28;20123;-87
2022/01/10 07:54:33;;;;;;;1.00;1.00;;;-1.50;99.90;;;;;;5076210;28;20497;-87
2022/01/10 07:56:59;;;;;;;1.00;1.00;;;-1.50;99.90;;;;;;5065660;28;20053;-89
2022/01/10 07:59:25;;;;;;;0.80;0.80;;;-1.50;99.90;;;;;;5061780;28;20049;-87
2022/01/10 08:01:50;;;;;;;0.88;0.88;;;-1.50;99.90;;;;;;5057702;28;20238;-87
2022/01/10 08:04:16;;;;;;;0.95;0.95;;;-1.50;99.90;;;;;;5083461;28;20045;-89
2022/01/10 08:06:42;;;;;;;1.17;1.17;;;-1.50;99.90;;;;;;5075754;28;20033;-89
2022/01/10 08:09:08;;;;;;;0.88;0.88;;;-1.50;99.90;;;;;;5069036;28;20036;-87
2022/01/10 08:11:33;;;;;;;0.90;0.90;;;-1.50;99.90;;;;;;5077963;28;20124;-88
2022/01/10 08:14:00;;;;;;;0.90;0.90;;;-1.50;99.90;;;;;;5060792;28;20514;-88
2022/01/10 08:16:26;;;;;;;0.90;0.90;;;-1.30;99.90;;;;;;5065735;28;20102;-87
2022/01/10 08:18:52;;;;;;;0.90;0.90;;;-1.50;99.90;;;;;;5072490;28;20041;-88
2022/01/10 08:21:18;;;;;;;1.10;1.00;;;-1.50;99.90;;;;;;5055557;28;20037;-86
2022/01/10 08:23:43;;;;;;;3.92;2.88;;;-1.50;99.90;;;;;;5053675;28;21473;-87
2022/01/10 08:26:09;;;;;;;0.95;0.95;;;-1.40;99.90;;;;;;5058134;28;20049;-86
2022/01/10 08:28:39;;;;;;;1.75;1.30;;;-1.40;99.90;;;;;;5080119;28;20036;-87
2022/01/10 08:31:05;;;;;;;1.30;1.20;;;-1.40;99.90;;;;;;5054883;28;20082;-87
2022/01/10 08:33:30;;;;;;;1.10;1.00;;;-1.40;99.90;;;;;;5085050;28;20045;-89
2022/01/10 08:35:56;;;;;;;0.95;0.95;;;-1.30;99.90;;;;;;5081442;28;20044;-86
2022/01/10 08:38:22;;;;;;;0.88;0.88;;;-1.40;99.90;;;;;;5062124;28;20051;-88
2022/01/10 08:40:48;;;;;;;1.10;1.10;;;-1.40;99.90;;;;;;5069151;28;20056;-88
2022/01/10 08:43:16;;;;;;;0.90;0.90;;;-1.40;99.90;;;;;;5064138;28;20037;-88
2022/01/10 08:45:42;;;;;;;1.27;1.17;;;-1.30;99.90;;;;;;5046201;28;20048;-88
2022/01/10 08:48:08;;;;;;;1.17;1.08;;;-1.30;99.90;;;;;;5061245;28;20037;-87
2022/01/10 08:50:35;;;;;;;0.90;0.90;;;-1.30;99.90;;;;;;5057318;28;20043;-86
2022/01/10 08:53:05;;;;;;;1.15;1.15;;;-1.20;99.90;;;;;;5072602;28;20045;-88
2022/01/10 08:55:31;;;;;;;1.10;1.10;;;-1.20;99.90;;;;;;5057103;28;20036;-87
2022/01/10 08:57:57;;;;;;;1.08;1.08;;;-1.10;99.90;;;;;;5055056;28;20037;-85
2022/01/10 09:00:22;;;;;;;1.00;1.00;;;-1.10;99.90;;;;;;5051133;28;20055;-87
2022/01/10 09:02:48;;;;;;;0.70;0.70;;;-1.10;99.90;;;;;;5081648;28;20044;-86
2022/01/10 09:05:14;;;;;;;1.42;1.33;;;-1.10;99.90;;;;;;5060362;28;20497;-88
2022/01/10 09:07:41;;;;;;;0.80;0.80;;;-1.00;99.90;;;;;;5064782;28;20091;-91
2022/01/10 09:10:10;;;;;;;0.80;0.80;;;-1.00;99.90;;;;;;5058397;28;20045;-93
2022/01/10 09:12:37;;;;;;;0.88;0.88;;;-1.10;99.90;;;;;;5057008;28;20040;-92
2022/01/10 09:15:03;;;;;;;1.25;1.17;;;-0.90;99.90;;;;;;5066276;28;20048;-89
2022/01/10 09:17:29;;;;;;;0.80;0.80;;;-0.90;99.90;;;;;;5057412;28;20048;-88
2022/01/10 09:19:54;;;;;;;0.93;0.93;;;-0.90;99.90;;;;;;5058676;28;20055;-90
2022/01/10 09:22:20;;;;;;;0.80;0.80;;;-0.90;99.90;;;;;;5068319;28;20123;-90
2022/01/10 09:24:46;;;;;;;1.35;1.25;;;-0.80;99.90;;;;;;5057111;28;20052;-89
2022/01/10 09:27:14;;;;;;;0.90;0.90;;;-0.80;99.90;;;;;;5057293;28;20195;-88
2022/01/10 09:29:40;;;;;;;1.65;1.55;;;-0.70;99.90;;;;;;5064404;28;20044;-89
2022/01/10 09:32:07;;;;;;;0.75;0.75;;;-0.80;99.90;;;;;;5052990;28;20032;-90
2022/01/10 09:34:33;;;;;;;1.65;1.55;;;-0.70;99.90;;;;;;5064487;28;20045;-89
2022/01/10 09:36:58;;;;;;;0.80;0.80;;;-0.60;99.90;;;;;;5065327;28;20133;-88
2022/01/10 09:39:24;;;;;;;5.55;1.20;;;-0.50;99.90;;;;;;5058249;28;20096;-88
2022/01/10 09:41:51;;;;;;;0.80;0.80;;;-0.50;99.90;;;;;;5058954;28;20049;-89
2022/01/10 09:44:17;;;;;;;2.67;1.30;;;-0.40;99.90;;;;;;5063856;28;20142;-88
2022/01/10 09:46:47;;;;;;;1.08;1.08;;;-0.50;99.90;;;;;;5057898;28;20075;-88
2022/01/10 09:49:13;;;;;;;1.60;1.50;;;-0.40;99.90;;;;;;5062109;28;20066;-91
2022/01/10 09:51:39;;;;;;;0.82;0.82;;;-0.30;99.90;;;;;;5065130;28;20104;-89
2022/01/10 09:54:05;;;;;;;1.20;1.10;;;-0.30;99.90;;;;;;5054783;28;20056;-86
2022/01/10 09:56:32;;;;;;;1.17;1.15;;;-0.30;99.90;;;;;;5064724;28;20102;-87
2022/01/10 09:58:59;;;;;;;0.80;0.80;;;-0.20;99.90;;;;;;5063205;28;20044;-89
2022/01/10 10:01:27;;;;;;;0.85;0.85;;;-0.20;99.90;;;;;;5064109;28;20044;-86
2022/01/10 10:03:58;;;;;;;1.38;1.27;;;-0.20;99.90;;;;;;5059797;28;20040;-86
2022/01/10 10:06:28;;;;;;;1.15;1.10;;;-0.10;99.90;;;;;;5077389;28;20045;-87
2022/01/10 10:09:00;;;;;;;1.20;1.13;;;0.00;99.90;;;;;;5054781;28;20052;-88
2022/01/10 10:11:47;;;;;;;1.10;1.10;;;0.00;99.90;;;;;;5056693;28;20068;-89
2022/01/10 10:14:17;;;;;;;0.80;0.80;;;0.10;99.90;;;;;;5053682;28;20136;-86
2022/01/10 10:16:51;;;;;;;1.17;1.17;;;0.20;99.90;;;;;;5060284;28;20066;-86
2022/01/10 10:19:19;;;;;;;4.53;2.80;;;0.20;99.90;;;;;;5063031;28;20045;-87
2022/01/10 10:21:46;;;;;;;1.25;1.15;;;0.30;99.90;;;;;;5054031;28;20167;-87
2022/01/10 10:24:12;;;;;;;1.15;1.08;;;0.30;99.90;;;;;;5073645;28;20041;-87
2022/01/10 10:26:37;;;;;;;0.98;0.98;;;0.30;99.90;;;;;;5071249;28;20047;-86
2022/01/10 10:29:03;;;;;;;1.45;1.38;;;0.40;99.90;;;;;;5062721;28;20131;-86
2022/01/10 10:31:36;;;;;;;0.90;0.90;;;0.40;99.90;;;;;;5058005;28;20044;-87
2022/01/10 10:34:04;;;;;;;2.23;2.00;;;0.50;99.90;;;;;;5058201;28;20444;-88
2022/01/10 10:36:34;;;;;;;1.33;1.23;;;0.60;99.90;;;;;;5057012;28;20299;-88
2022/01/10 10:39:03;;;;;;;1.38;1.27;;;0.60;99.90;;;;;;5062632;28;20041;-87
2022/01/10 10:41:29;;;;;;;2.63;2.42;;;0.70;99.90;;;;;;5059261;28;20041;-87
2022/01/10 10:43:55;;;;;;;0.77;0.77;;;0.70;99.90;;;;;;5073132;28;20090;-88
2022/01/10 10:46:26;;;;;;;2.22;1.88;;;0.90;99.90;;;;;;5063889;28;20068;-87
2022/01/10 10:48:53;;;;;;;0.98;0.98;;;0.90;99.90;;;;;;5071690;28;20041;-87
2022/01/10 10:51:19;;;;;;;0.80;0.80;;;0.90;99.90;;;;;;5061263;28;20070;-88
2022/01/10 10:53:45;;;;;;;0.90;0.90;;;1.00;99.90;;;;;;5061356;28;20080;-88
2022/01/10 10:56:10;;;;;;;1.17;1.10;;;1.00;99.90;;;;;;5072249;28;20064;-88
2022/01/10 10:58:39;;;;;;;0.90;0.90;;;1.10;99.90;;;;;;5060905;28;20136;-84
2022/01/10 11:01:05;;;;;;;1.52;1.42;;;1.20;99.90;;;;;;5077835;28;20051;-83
2022/01/10 11:03:31;;;;;;;0.85;0.85;;;1.30;99.90;;;;;;5077051;28;20036;-84
2022/01/10 11:05:59;;;;;;;1.40;1.30;;;1.30;99.90;;;;;;5073202;28;20052;-84
2022/01/10 11:08:31;;;;;;;0.80;0.80;;;1.50;99.90;;;;;;5053159;28;20072;-84
2022/01/10 11:11:00;;;;;;;1.25;1.15;;;1.50;99.90;;;;;;5059791;28;20033;-83
2022/01/10 11:13:27;;;;;;;0.90;0.90;;;1.50;99.90;;;;;;5066751;28;20045;-83
2022/01/10 11:15:55;;;;;;;1.10;1.10;;;1.60;99.90;;;;;;5052618;28;20045;-84
2022/01/10 11:18:23;;;;;;;0.82;0.82;;;1.60;99.90;;;;;;5058080;28;20127;-84
2022/01/10 11:20:51;;;;;;;2.05;1.85;;;1.70;99.90;;;;;;5072493;28;20071;-84
2022/01/10 11:23:17;;;;;;;1.90;1.33;;;1.70;99.90;;;;;;5073420;28;20124;-83
2022/01/10 11:25:44;;;;;;;2.88;1.58;;;1.90;99.90;;;;;;5072656;28;20120;-83
2022/01/10 11:28:17;;;;;;;0.82;0.82;;;1.90;99.90;;;;;;5058426;28;20056;-83
2022/01/10 11:30:45;;;;;;;0.80;0.80;;;1.90;99.90;;;;;;5073543;28;20036;-82
2022/01/10 11:33:15;;;;;;;1.13;1.13;;;2.00;99.90;;;;;;5059778;28;20040;-81
2022/01/10 11:35:51;;;;;;;1.50;1.40;;;2.10;99.90;;;;;;5077208;28;20040;-82
2022/01/10 11:38:17;;;;;;;1.58;1.48;;;2.10;99.90;;;;;;5068002;28;20037;-83
2022/01/10 11:40:44;;;;;;;0.90;0.90;;;2.20;99.90;;;;;;5062746;28;20064;-84
2022/01/10 11:43:31;;;;;;;0.80;0.80;;;2.30;99.90;;;;;;5077477;28;20037;-83
2022/01/10 11:46:16;;;;;;;0.90;0.90;;;2.30;99.90;;;;;;5060110;28;20051;-83
2022/01/10 11:49:02;;;;;;;0.95;0.95;;;2.40;99.90;;;;;;5079171;28;20041;-82
2022/01/10 11:51:31;;;;;;;0.90;0.90;;;2.50;99.90;;;;;;5078103;28;20041;-83
2022/01/10 11:54:16;;;;;;;1.33;1.23;;;2.50;99.90;;;;;;5076692;28;20721;-83
2022/01/10 11:56:44;;;;;;;0.80;0.80;;;2.60;99.90;;;;;;5067623;28;20060;-83
2022/01/10 11:59:11;;;;;;;0.80;0.80;;;2.60;99.90;;;;;;5070790;28;20125;-82
2022/01/10 12:01:43;;;;;;;1.35;1.25;;;2.70;99.90;;;;;;5069849;28;20119;-82
2022/01/10 12:04:08;;;;;;;0.80;0.80;;;2.70;99.90;;;;;;5067843;28;20052;-84
2022/01/10 12:06:36;;;;;;;1.30;1.20;;;2.80;99.90;;;;;;5053427;28;20427;-85
2022/01/10 12:09:03;;;;;;;0.80;0.80;;;2.80;99.90;;;;;;5070698;28;20037;-83
2022/01/10 12:11:30;;;;;;;1.20;1.15;;;2.80;99.90;;;;;;5076186;28;20040;-83
2022/01/10 12:13:56;;;;;;;0.85;0.85;;;2.80;99.90;;;;;;5076173;28;20029;-82
2022/01/10 12:16:22;;;;;;;0.98;0.90;;;2.90;99.90;;;;;;5058180;28;20100;-82
2022/01/10 12:18:48;;;;;;;0.90;0.90;;;2.90;99.90;;;;;;5076559;28;20048;-83
2022/01/10 12:21:15;;;;;;;0.93;0.93;;;2.90;99.90;;;;;;5081638;28;20497;-82
2022/01/10 12:23:42;;;;;;;1.25;1.15;;;3.00;99.90;;;;;;5070403;28;20040;-83
2022/01/10 12:26:08;;;;;;;0.80;0.80;;;3.00;99.90;;;;;;5083220;28;20046;-82
2022/01/10 12:28:34;;;;;;;0.70;0.70;;;3.10;99.90;;;;;;5080064;28;20678;-83
2022/01/10 12:31:02;;;;;;;1.58;1.33;;;3.10;99.90;;;;;;5081481;28;20041;-85
2022/01/10 12:33:29;;;;;;;0.70;0.70;;;3.10;99.90;;;;;;5082595;28;20099;-82
2022/01/10 12:35:54;;;;;;;0.90;0.90;;;3.10;99.90;;;;;;5073161;28;20045;-82
2022/01/10 12:38:21;;;;;;;0.80;0.80;;;3.20;99.90;;;;;;5079387;28;20060;-83
2022/01/10 12:40:49;;;;;;;0.77;0.77;;;3.20;99.90;;;;;;5080843;28;20086;-83
2022/01/10 12:43:15;;;;;;;0.80;0.80;;;3.30;99.90;;;;;;5080293;28;20041;-83
2022/01/10 12:45:40;;;;;;;1.20;1.10;;;3.30;99.90;;;;;;5076063;28;20081;-83
2022/01/10 12:48:09;;;;;;;1.00;0.90;;;3.30;99.90;;;;;;5069815;28;20052;-83
2022/01/10 12:50:34;;;;;;;0.60;0.60;;;3.30;99.90;;;;;;5074520;28;20044;-83
2022/01/10 12:53:00;;;;;;;0.90;0.90;;;3.40;99.90;;;;;;5076137;28;20079;-83
2022/01/10 12:55:26;;;;;;;0.80;0.80;;;3.40;99.90;;;;;;5076217;28;20429;-83
2022/01/10 12:57:51;;;;;;;0.73;0.73;;;3.50;99.90;;;;;;5056397;28;20051;-83
2022/01/10 13:00:17;;;;;;;1.73;1.63;;;3.50;99.90;;;;;;5061030;28;20059;-84
2022/01/10 13:02:43;;;;;;;0.80;0.80;;;3.50;99.90;;;;;;5059308;28;20037;-83